sensor_id;sensor_type;location;lat;lon;timestamp;P1;durP1;ratioP1;P2;durP2;ratioP2
77099;SDS011;66602;48.922;2.414;2023-03-23T00:01:59;2.03;;;1.20;;
77099;SDS011;66602;48.922;2.414;2023-03-23T00:04:24;1.92;;;1.30;;
77099;SDS011;66602;48.922;2.414;2023-03-23T00:06:51;1.27;;;1.25;;
77099;SDS011;66602;48.922;2.414;2023-03-23T00:09:17;1.55;;;1.45;;
77099;SDS011;66602;48.922;2.414;2023-03-23T00:11:48;1.95;;;1.33;;
77099;SDS011;66602;48.922;2.414;2023-03-23T00:14:15;3.40;;;1.15;;
77099;SDS011;66602;48.922;2.414;2023-03-23T00:16:41;5.40;;;1.40;;
77099;SDS011;66602;48.922;2.414;2023-03-23T00:19:08;1.25;;;1.15;;
77099;SDS011;66602;48.922;2.414;2023-03-23T00:21:38;1.20;;;1.10;;
77099;SDS011;66602;48.922;2.414;2023-03-23T00:26:32;1.67;;;1.15;;
77099;SDS011;66602;48.922;2.414;2023-03-23T00:29:03;1.40;;;1.30;;
77099;SDS011;66602;48.922;2.414;2023-03-23T00:31:29;1.10;;;1.10;;
77099;SDS011;66602;48.922;2.414;2023-03-23T00:34:00;2.08;;;1.40;;
77099;SDS011;66602;48.922;2.414;2023-03-23T00:36:28;1.90;;;1.20;;
77099;SDS011;66602;48.922;2.414;2023-03-23T00:38:55;1.83;;;1.73;;
77099;SDS011;66602;48.922;2.414;2023-03-23T00:41:24;1.20;;;1.10;;
77099;SDS011;66602;48.922;2.414;2023-03-23T00:43:52;3.88;;;1.30;;
77099;SDS011;66602;48.922;2.414;2023-03-23T00:46:18;1.40;;;1.30;;
77099;SDS011;66602;48.922;2.414;2023-03-23T00:48:45;2.22;;;1.42;;
77099;SDS011;66602;48.922;2.414;2023-03-23T00:51:11;4.50;;;1.35;;
77099;SDS011;66602;48.922;2.414;2023-03-23T00:53:40;1.10;;;1.00;;
77099;SDS011;66602;48.922;2.414;2023-03-23T00:56:06;0.90;;;0.90;;
77099;SDS011;66602;48.922;2.414;2023-03-23T00:58:32;2.30;;;1.25;;
77099;SDS011;66602;48.922;2.414;2023-03-23T01:00:58;1.10;;;1.10;;
77099;SDS011;66602;48.922;2.414;2023-03-23T01:03:23;1.77;;;1.30;;
77099;SDS011;66602;48.922;2.414;2023-03-23T01:05:50;3.80;;;1.65;;
77099;SDS011;66602;48.922;2.414;2023-03-23T01:08:17;2.90;;;1.30;;
77099;SDS011;66602;48.922;2.414;2023-03-23T01:10:45;2.72;;;1.42;;
77099;SDS011;66602;48.922;2.414;2023-03-23T01:13:11;2.35;;;1.40;;
77099;SDS011;66602;48.922;2.414;2023-03-23T01:15:37;2.42;;;1.60;;
77099;SDS011;66602;48.922;2.414;2023-03-23T01:18:03;1.45;;;1.35;;
77099;SDS011;66602;48.922;2.414;2023-03-23T01:20:29;3.00;;;1.45;;
77099;SDS011;66602;48.922;2.414;2023-03-23T01:22:56;1.35;;;1.25;;
77099;SDS011;66602;48.922;2.414;2023-03-23T01:25:31;3.00;;;1.20;;
77099;SDS011;66602;48.922;2.414;2023-03-23T01:28:00;2.17;;;1.42;;
77099;SDS011;66602;48.922;2.414;2023-03-23T01:30:26;1.80;;;1.25;;
77099;SDS011;66602;48.922;2.414;2023-03-23T01:32:52;1.38;;;1.27;;
77099;SDS011;66602;48.922;2.414;2023-03-23T01:35:19;2.35;;;1.35;;
77099;SDS011;66602;48.922;2.414;2023-03-23T01:37:45;1.38;;;1.30;;
77099;SDS011;66602;48.922;2.414;2023-03-23T01:40:12;1.88;;;1.42;;
77099;SDS011;66602;48.922;2.414;2023-03-23T01:42:39;1.20;;;1.20;;
77099;SDS011;66602;48.922;2.414;2023-03-23T01:47:59;2.10;;;1.33;;
77099;SDS011;66602;48.922;2.414;2023-03-23T01:50:34;2.63;;;1.48;;
77099;SDS011;66602;48.922;2.414;2023-03-23T01:53:06;2.63;;;1.75;;
77099;SDS011;66602;48.922;2.414;2023-03-23T01:55:33;3.42;;;1.60;;
77099;SDS011;66602;48.922;2.414;2023-03-23T01:58:03;1.92;;;1.83;;
77099;SDS011;66602;48.922;2.414;2023-03-23T02:00:30;1.80;;;1.27;;
77099;SDS011;66602;48.922;2.414;2023-03-23T02:02:56;1.58;;;1.48;;
77099;SDS011;66602;48.922;2.414;2023-03-23T02:05:32;1.30;;;1.20;;
77099;SDS011;66602;48.922;2.414;2023-03-23T02:08:03;1.13;;;1.00;;
77099;SDS011;66602;48.922;2.414;2023-03-23T02:10:32;1.10;;;1.10;;
77099;SDS011;66602;48.922;2.414;2023-03-23T02:12:58;2.38;;;1.13;;
77099;SDS011;66602;48.922;2.414;2023-03-23T02:27:14;1.85;;;1.05;;
77099;SDS011;66602;48.922;2.414;2023-03-23T02:35:32;1.08;;;1.00;;
77099;SDS011;66602;48.922;2.414;2023-03-23T02:38:26;3.13;;;1.25;;
77099;SDS011;66602;48.922;2.414;2023-03-23T02:40:58;1.52;;;1.30;;
77099;SDS011;66602;48.922;2.414;2023-03-23T02:43:28;1.30;;;1.20;;
77099;SDS011;66602;48.922;2.414;2023-03-23T02:45:58;1.95;;;1.77;;
77099;SDS011;66602;48.922;2.414;2023-03-23T02:48:27;1.45;;;1.30;;
77099;SDS011;66602;48.922;2.414;2023-03-23T02:50:55;1.40;;;1.30;;
77099;SDS011;66602;48.922;2.414;2023-03-23T02:53:23;2.42;;;1.17;;
77099;SDS011;66602;48.922;2.414;2023-03-23T02:55:50;1.10;;;1.10;;
77099;SDS011;66602;48.922;2.414;2023-03-23T02:58:18;1.98;;;1.33;;
77099;SDS011;66602;48.922;2.414;2023-03-23T03:00:45;1.95;;;1.80;;
77099;SDS011;66602;48.922;2.414;2023-03-23T03:03:15;1.20;;;1.20;;
77099;SDS011;66602;48.922;2.414;2023-03-23T03:05:49;1.40;;;1.30;;
77099;SDS011;66602;48.922;2.414;2023-03-23T03:11:24;3.80;;;1.45;;
77099;SDS011;66602;48.922;2.414;2023-03-23T03:13:58;2.40;;;1.13;;
77099;SDS011;66602;48.922;2.414;2023-03-23T03:19:34;2.97;;;1.73;;
77099;SDS011;66602;48.922;2.414;2023-03-23T03:22:03;2.15;;;1.40;;
77099;SDS011;66602;48.922;2.414;2023-03-23T03:24:30;1.00;;;1.00;;
77099;SDS011;66602;48.922;2.414;2023-03-23T03:26:57;2.08;;;1.17;;
77099;SDS011;66602;48.922;2.414;2023-03-23T03:29:27;1.98;;;1.20;;
77099;SDS011;66602;48.922;2.414;2023-03-23T03:31:57;1.08;;;1.08;;
77099;SDS011;66602;48.922;2.414;2023-03-23T03:34:24;4.20;;;1.40;;
77099;SDS011;66602;48.922;2.414;2023-03-23T03:36:51;1.65;;;1.15;;
77099;SDS011;66602;48.922;2.414;2023-03-23T03:39:18;2.95;;;1.13;;
77099;SDS011;66602;48.922;2.414;2023-03-23T03:41:46;1.73;;;1.63;;
77099;SDS011;66602;48.922;2.414;2023-03-23T03:44:12;4.40;;;1.45;;
77099;SDS011;66602;48.922;2.414;2023-03-23T03:46:37;1.40;;;1.30;;
77099;SDS011;66602;48.922;2.414;2023-03-23T03:49:04;1.50;;;1.40;;
77099;SDS011;66602;48.922;2.414;2023-03-23T03:51:32;1.60;;;1.50;;
77099;SDS011;66602;48.922;2.414;2023-03-23T03:53:58;6.95;;;1.38;;
77099;SDS011;66602;48.922;2.414;2023-03-23T03:56:24;1.92;;;1.67;;
77099;SDS011;66602;48.922;2.414;2023-03-23T03:58:51;1.55;;;1.45;;
77099;SDS011;66602;48.922;2.414;2023-03-23T04:01:17;6.22;;;1.60;;
77099;SDS011;66602;48.922;2.414;2023-03-23T04:03:46;1.73;;;1.52;;
77099;SDS011;66602;48.922;2.414;2023-03-23T04:06:12;1.30;;;1.20;;
77099;SDS011;66602;48.922;2.414;2023-03-23T04:08:37;1.48;;;1.38;;
77099;SDS011;66602;48.922;2.414;2023-03-23T04:11:04;1.92;;;1.73;;
77099;SDS011;66602;48.922;2.414;2023-03-23T04:13:30;1.63;;;1.42;;
77099;SDS011;66602;48.922;2.414;2023-03-23T04:15:55;1.40;;;1.30;;
77099;SDS011;66602;48.922;2.414;2023-03-23T04:18:21;3.50;;;1.60;;
77099;SDS011;66602;48.922;2.414;2023-03-23T04:20:47;2.80;;;1.10;;
77099;SDS011;66602;48.922;2.414;2023-03-23T04:23:15;1.45;;;1.13;;
77099;SDS011;66602;48.922;2.414;2023-03-23T04:25:51;5.43;;;1.83;;
77099;SDS011;66602;48.922;2.414;2023-03-23T04:28:22;3.08;;;1.88;;
77099;SDS011;66602;48.922;2.414;2023-03-23T04:30:49;2.17;;;1.27;;
77099;SDS011;66602;48.922;2.414;2023-03-23T04:33:21;1.55;;;1.45;;
77099;SDS011;66602;48.922;2.414;2023-03-23T04:35:50;1.83;;;1.23;;
77099;SDS011;66602;48.922;2.414;2023-03-23T04:38:16;1.23;;;1.20;;
77099;SDS011;66602;48.922;2.414;2023-03-23T04:40:45;1.48;;;1.35;;
77099;SDS011;66602;48.922;2.414;2023-03-23T04:43:11;1.58;;;1.48;;
77099;SDS011;66602;48.922;2.414;2023-03-23T04:45:37;2.50;;;1.50;;
77099;SDS011;66602;48.922;2.414;2023-03-23T04:48:06;1.30;;;1.23;;
77099;SDS011;66602;48.922;2.414;2023-03-23T04:50:33;2.92;;;1.50;;
77099;SDS011;66602;48.922;2.414;2023-03-23T04:52:59;1.48;;;1.40;;
77099;SDS011;66602;48.922;2.414;2023-03-23T04:55:32;1.20;;;1.20;;
77099;SDS011;66602;48.922;2.414;2023-03-23T04:58:03;3.00;;;1.40;;
77099;SDS011;66602;48.922;2.414;2023-03-23T05:00:31;4.57;;;1.35;;
77099;SDS011;66602;48.922;2.414;2023-03-23T05:02:57;1.30;;;1.30;;
77099;SDS011;66602;48.922;2.414;2023-03-23T05:05:24;1.98;;;1.20;;
77099;SDS011;66602;48.922;2.414;2023-03-23T05:07:50;1.85;;;1.33;;
77099;SDS011;66602;48.922;2.414;2023-03-23T05:10:16;2.17;;;1.45;;
77099;SDS011;66602;48.922;2.414;2023-03-23T05:12:42;2.55;;;1.58;;
77099;SDS011;66602;48.922;2.414;2023-03-23T05:15:10;1.58;;;1.48;;
77099;SDS011;66602;48.922;2.414;2023-03-23T05:17:37;1.75;;;1.40;;
77099;SDS011;66602;48.922;2.414;2023-03-23T05:20:04;2.70;;;1.40;;
77099;SDS011;66602;48.922;2.414;2023-03-23T05:22:33;2.97;;;1.65;;
77099;SDS011;66602;48.922;2.414;2023-03-23T05:24:58;1.35;;;1.20;;
77099;SDS011;66602;48.922;2.414;2023-03-23T05:27:27;3.15;;;1.40;;
77099;SDS011;66602;48.922;2.414;2023-03-23T05:29:55;2.00;;;1.38;;
77099;SDS011;66602;48.922;2.414;2023-03-23T05:32:23;1.67;;;1.27;;
77099;SDS011;66602;48.922;2.414;2023-03-23T05:34:54;1.65;;;1.55;;
77099;SDS011;66602;48.922;2.414;2023-03-23T05:37:23;1.50;;;1.38;;
77099;SDS011;66602;48.922;2.414;2023-03-23T05:39:50;3.50;;;1.25;;
77099;SDS011;66602;48.922;2.414;2023-03-23T05:42:21;1.38;;;1.27;;
77099;SDS011;66602;48.922;2.414;2023-03-23T05:44:47;1.95;;;1.55;;
77099;SDS011;66602;48.922;2.414;2023-03-23T05:47:12;2.70;;;1.40;;
77099;SDS011;66602;48.922;2.414;2023-03-23T05:49:38;1.75;;;1.20;;
77099;SDS011;66602;48.922;2.414;2023-03-23T05:52:04;4.00;;;1.45;;
77099;SDS011;66602;48.922;2.414;2023-03-23T05:54:29;1.33;;;1.20;;
77099;SDS011;66602;48.922;2.414;2023-03-23T05:56:55;1.77;;;1.42;;
77099;SDS011;66602;48.922;2.414;2023-03-23T05:59:20;1.60;;;1.10;;
77099;SDS011;66602;48.922;2.414;2023-03-23T06:01:46;4.35;;;1.70;;
77099;SDS011;66602;48.922;2.414;2023-03-23T06:04:11;1.67;;;1.58;;
77099;SDS011;66602;48.922;2.414;2023-03-23T06:06:38;1.50;;;1.38;;
77099;SDS011;66602;48.922;2.414;2023-03-23T06:09:04;2.88;;;1.40;;
77099;SDS011;66602;48.922;2.414;2023-03-23T06:11:30;1.50;;;1.40;;
77099;SDS011;66602;48.922;2.414;2023-03-23T06:13:55;1.83;;;1.17;;
77099;SDS011;66602;48.922;2.414;2023-03-23T06:16:21;1.52;;;1.42;;
77099;SDS011;66602;48.922;2.414;2023-03-23T06:18:46;1.30;;;1.30;;
77099;SDS011;66602;48.922;2.414;2023-03-23T06:21:13;2.10;;;1.25;;
77099;SDS011;66602;48.922;2.414;2023-03-23T06:23:38;6.95;;;1.20;;
77099;SDS011;66602;48.922;2.414;2023-03-23T06:26:05;1.38;;;1.23;;
77099;SDS011;66602;48.922;2.414;2023-03-23T06:28:33;1.67;;;1.15;;
77099;SDS011;66602;48.922;2.414;2023-03-23T06:30:59;1.85;;;1.30;;
77099;SDS011;66602;48.922;2.414;2023-03-23T06:33:26;4.75;;;2.33;;
77099;SDS011;66602;48.922;2.414;2023-03-23T06:35:52;1.13;;;1.13;;
77099;SDS011;66602;48.922;2.414;2023-03-23T06:38:18;1.83;;;1.30;;
77099;SDS011;66602;48.922;2.414;2023-03-23T06:40:43;1.85;;;1.73;;
77099;SDS011;66602;48.922;2.414;2023-03-23T06:43:12;3.55;;;1.50;;
77099;SDS011;66602;48.922;2.414;2023-03-23T06:45:38;1.50;;;1.40;;
77099;SDS011;66602;48.922;2.414;2023-03-23T06:48:04;1.73;;;1.35;;
77099;SDS011;66602;48.922;2.414;2023-03-23T06:50:30;2.47;;;1.50;;
77099;SDS011;66602;48.922;2.414;2023-03-23T06:52:56;2.35;;;1.80;;
77099;SDS011;66602;48.922;2.414;2023-03-23T06:55:22;5.25;;;1.50;;
77099;SDS011;66602;48.922;2.414;2023-03-23T06:57:47;2.33;;;1.58;;
77099;SDS011;66602;48.922;2.414;2023-03-23T07:00:13;1.88;;;1.42;;
77099;SDS011;66602;48.922;2.414;2023-03-23T07:02:40;1.95;;;1.70;;
77099;SDS011;66602;48.922;2.414;2023-03-23T07:05:07;1.98;;;1.40;;
77099;SDS011;66602;48.922;2.414;2023-03-23T07:07:34;1.88;;;1.63;;
77099;SDS011;66602;48.922;2.414;2023-03-23T07:10:00;1.60;;;1.58;;
77099;SDS011;66602;48.922;2.414;2023-03-23T07:12:26;1.88;;;1.77;;
77099;SDS011;66602;48.922;2.414;2023-03-23T07:14:52;2.17;;;1.98;;
77099;SDS011;66602;48.922;2.414;2023-03-23T07:17:17;1.77;;;1.67;;
77099;SDS011;66602;48.922;2.414;2023-03-23T07:19:43;5.57;;;1.90;;
77099;SDS011;66602;48.922;2.414;2023-03-23T07:22:09;2.08;;;1.88;;
77099;SDS011;66602;48.922;2.414;2023-03-23T07:24:34;2.05;;;1.88;;
77099;SDS011;66602;48.922;2.414;2023-03-23T07:27:00;2.00;;;1.90;;
77099;SDS011;66602;48.922;2.414;2023-03-23T07:29:26;2.03;;;1.92;;
77099;SDS011;66602;48.922;2.414;2023-03-23T07:31:54;1.83;;;1.73;;
77099;SDS011;66602;48.922;2.414;2023-03-23T07:34:21;3.20;;;1.90;;
77099;SDS011;66602;48.922;2.414;2023-03-23T07:36:47;1.80;;;1.70;;
77099;SDS011;66602;48.922;2.414;2023-03-23T07:39:13;2.00;;;1.90;;
77099;SDS011;66602;48.922;2.414;2023-03-23T07:41:39;2.38;;;1.70;;
77099;SDS011;66602;48.922;2.414;2023-03-23T07:44:04;1.70;;;1.52;;
77099;SDS011;66602;48.922;2.414;2023-03-23T07:46:31;2.65;;;1.80;;
77099;SDS011;66602;48.922;2.414;2023-03-23T07:48:59;4.18;;;1.65;;
77099;SDS011;66602;48.922;2.414;2023-03-23T07:51:29;1.65;;;1.55;;
77099;SDS011;66602;48.922;2.414;2023-03-23T07:53:55;1.77;;;1.52;;
77099;SDS011;66602;48.922;2.414;2023-03-23T07:56:21;2.55;;;1.92;;
77099;SDS011;66602;48.922;2.414;2023-03-23T07:58:47;3.72;;;1.70;;
77099;SDS011;66602;48.922;2.414;2023-03-23T08:01:14;1.70;;;1.60;;
77099;SDS011;66602;48.922;2.414;2023-03-23T08:03:40;2.75;;;1.70;;
77099;SDS011;66602;48.922;2.414;2023-03-23T08:06:09;1.75;;;1.65;;
77099;SDS011;66602;48.922;2.414;2023-03-23T08:08:35;2.17;;;1.70;;
77099;SDS011;66602;48.922;2.414;2023-03-23T08:11:02;2.70;;;1.73;;
77099;SDS011;66602;48.922;2.414;2023-03-23T08:13:29;2.88;;;1.52;;
77099;SDS011;66602;48.922;2.414;2023-03-23T08:15:55;1.70;;;1.60;;
77099;SDS011;66602;48.922;2.414;2023-03-23T08:18:21;3.95;;;2.17;;
77099;SDS011;66602;48.922;2.414;2023-03-23T08:20:47;1.85;;;1.25;;
77099;SDS011;66602;48.922;2.414;2023-03-23T08:23:14;3.72;;;2.15;;
77099;SDS011;66602;48.922;2.414;2023-03-23T08:25:41;3.63;;;1.83;;
77099;SDS011;66602;48.922;2.414;2023-03-23T08:28:08;1.73;;;1.60;;
77099;SDS011;66602;48.922;2.414;2023-03-23T08:30:40;3.08;;;1.88;;
77099;SDS011;66602;48.922;2.414;2023-03-23T08:33:09;2.17;;;1.67;;
77099;SDS011;66602;48.922;2.414;2023-03-23T08:36:04;1.98;;;1.88;;
77099;SDS011;66602;48.922;2.414;2023-03-23T08:40:57;2.25;;;1.95;;
77099;SDS011;66602;48.922;2.414;2023-03-23T08:43:24;4.75;;;1.65;;
77099;SDS011;66602;48.922;2.414;2023-03-23T08:45:50;2.72;;;2.03;;
77099;SDS011;66602;48.922;2.414;2023-03-23T08:51:29;5.55;;;1.80;;
77099;SDS011;66602;48.922;2.414;2023-03-23T08:53:58;4.72;;;1.77;;
77099;SDS011;66602;48.922;2.414;2023-03-23T08:56:23;4.63;;;1.73;;
77099;SDS011;66602;48.922;2.414;2023-03-23T08:58:52;2.13;;;1.92;;
77099;SDS011;66602;48.922;2.414;2023-03-23T09:01:18;2.42;;;1.80;;
77099;SDS011;66602;48.922;2.414;2023-03-23T09:03:53;2.08;;;1.45;;
77099;SDS011;66602;48.922;2.414;2023-03-23T09:13:04;4.15;;;1.83;;
77099;SDS011;66602;48.922;2.414;2023-03-23T09:15:31;7.22;;;2.15;;
77099;SDS011;66602;48.922;2.414;2023-03-23T09:17:57;3.42;;;1.75;;
77099;SDS011;66602;48.922;2.414;2023-03-23T09:20:25;4.63;;;2.03;;
77099;SDS011;66602;48.922;2.414;2023-03-23T09:22:52;4.25;;;2.05;;
77099;SDS011;66602;48.922;2.414;2023-03-23T09:25:20;8.00;;;1.95;;
77099;SDS011;66602;48.922;2.414;2023-03-23T09:27:51;7.35;;;1.83;;
77099;SDS011;66602;48.922;2.414;2023-03-23T09:30:24;2.88;;;2.15;;
77099;SDS011;66602;48.922;2.414;2023-03-23T09:32:52;4.25;;;1.70;;
77099;SDS011;66602;48.922;2.414;2023-03-23T09:35:19;4.55;;;1.80;;
77099;SDS011;66602;48.922;2.414;2023-03-23T09:37:49;2.95;;;1.77;;
77099;SDS011;66602;48.922;2.414;2023-03-23T09:40:17;12.38;;;2.20;;
77099;SDS011;66602;48.922;2.414;2023-03-23T09:50:45;3.47;;;1.85;;
77099;SDS011;66602;48.922;2.414;2023-03-23T09:53:24;8.73;;;1.80;;
77099;SDS011;66602;48.922;2.414;2023-03-23T09:56:01;5.30;;;2.05;;
77099;SDS011;66602;48.922;2.414;2023-03-23T09:58:31;7.10;;;2.25;;
77099;SDS011;66602;48.922;2.414;2023-03-23T10:01:05;6.75;;;2.30;;
77099;SDS011;66602;48.922;2.414;2023-03-23T10:03:40;2.53;;;1.92;;
77099;SDS011;66602;48.922;2.414;2023-03-23T10:06:11;8.98;;;1.92;;
77099;SDS011;66602;48.922;2.414;2023-03-23T10:08:45;4.82;;;2.00;;
77099;SDS011;66602;48.922;2.414;2023-03-23T10:14:06;8.57;;;2.20;;
77099;SDS011;66602;48.922;2.414;2023-03-23T10:22:39;4.70;;;1.95;;
77099;SDS011;66602;48.922;2.414;2023-03-23T10:27:45;6.15;;;2.00;;
77099;SDS011;66602;48.922;2.414;2023-03-23T10:30:42;4.85;;;1.77;;
77099;SDS011;66602;48.922;2.414;2023-03-23T10:33:14;2.95;;;2.15;;
77099;SDS011;66602;48.922;2.414;2023-03-23T10:36:03;4.10;;;1.73;;
77099;SDS011;66602;48.922;2.414;2023-03-23T10:38:41;4.22;;;2.25;;
77099;SDS011;66602;48.922;2.414;2023-03-23T10:41:19;8.82;;;6.22;;
77099;SDS011;66602;48.922;2.414;2023-03-23T10:43:46;10.38;;;2.13;;
77099;SDS011;66602;48.922;2.414;2023-03-23T10:49:23;6.85;;;2.45;;
77099;SDS011;66602;48.922;2.414;2023-03-23T10:52:35;9.13;;;1.80;;
77099;SDS011;66602;48.922;2.414;2023-03-23T10:55:03;4.38;;;2.05;;
77099;SDS011;66602;48.922;2.414;2023-03-23T10:57:41;6.97;;;2.35;;
77099;SDS011;66602;48.922;2.414;2023-03-23T11:02:58;13.25;;;2.35;;
77099;SDS011;66602;48.922;2.414;2023-03-23T11:05:31;3.55;;;1.65;;
77099;SDS011;66602;48.922;2.414;2023-03-23T11:08:00;5.78;;;2.25;;
77099;SDS011;66602;48.922;2.414;2023-03-23T11:10:36;3.58;;;2.17;;
77099;SDS011;66602;48.922;2.414;2023-03-23T11:13:04;3.20;;;2.38;;
77099;SDS011;66602;48.922;2.414;2023-03-23T11:15:35;5.32;;;2.70;;
77099;SDS011;66602;48.922;2.414;2023-03-23T11:18:06;10.85;;;2.53;;
77099;SDS011;66602;48.922;2.414;2023-03-23T11:20:43;5.40;;;2.40;;
77099;SDS011;66602;48.922;2.414;2023-03-23T11:23:21;4.68;;;2.47;;
77099;SDS011;66602;48.922;2.414;2023-03-23T11:26:10;2.90;;;1.90;;
77099;SDS011;66602;48.922;2.414;2023-03-23T11:28:35;4.38;;;2.10;;
77099;SDS011;66602;48.922;2.414;2023-03-23T11:31:04;8.65;;;2.47;;
77099;SDS011;66602;48.922;2.414;2023-03-23T11:33:48;4.85;;;2.78;;
77099;SDS011;66602;48.922;2.414;2023-03-23T11:36:18;6.05;;;2.25;;
77099;SDS011;66602;48.922;2.414;2023-03-23T11:38:44;9.85;;;2.40;;
77099;SDS011;66602;48.922;2.414;2023-03-23T11:41:11;6.45;;;2.75;;
77099;SDS011;66602;48.922;2.414;2023-03-23T11:43:43;3.90;;;2.25;;
77099;SDS011;66602;48.922;2.414;2023-03-23T11:49:07;6.47;;;2.60;;
77099;SDS011;66602;48.922;2.414;2023-03-23T11:51:45;3.83;;;2.60;;
77099;SDS011;66602;48.922;2.414;2023-03-23T11:54:34;12.50;;;2.58;;
77099;SDS011;66602;48.922;2.414;2023-03-23T11:57:09;6.80;;;2.80;;
77099;SDS011;66602;48.922;2.414;2023-03-23T11:59:36;4.35;;;2.40;;
77099;SDS011;66602;48.922;2.414;2023-03-23T12:04:54;8.50;;;3.10;;
77099;SDS011;66602;48.922;2.414;2023-03-23T12:07:32;7.57;;;2.83;;
77099;SDS011;66602;48.922;2.414;2023-03-23T12:18:36;9.82;;;3.10;;
77099;SDS011;66602;48.922;2.414;2023-03-23T12:26:24;12.02;;;2.90;;
77099;SDS011;66602;48.922;2.414;2023-03-23T12:32:05;11.40;;;3.63;;
77099;SDS011;66602;48.922;2.414;2023-03-23T12:34:51;6.82;;;3.20;;
77099;SDS011;66602;48.922;2.414;2023-03-23T12:40:32;7.38;;;2.88;;
77099;SDS011;66602;48.922;2.414;2023-03-23T12:48:56;4.25;;;2.63;;
77099;SDS011;66602;48.922;2.414;2023-03-23T12:52:02;8.13;;;2.65;;
77099;SDS011;66602;48.922;2.414;2023-03-23T12:54:39;8.05;;;3.13;;
77099;SDS011;66602;48.922;2.414;2023-03-23T13:00:13;7.82;;;2.95;;
77099;SDS011;66602;48.922;2.414;2023-03-23T13:02:57;8.48;;;3.15;;
77099;SDS011;66602;48.922;2.414;2023-03-23T13:08:14;11.30;;;2.85;;
77099;SDS011;66602;48.922;2.414;2023-03-23T13:10:47;8.85;;;2.63;;
77099;SDS011;66602;48.922;2.414;2023-03-23T13:13:19;4.95;;;2.75;;
77099;SDS011;66602;48.922;2.414;2023-03-23T13:18:39;9.52;;;3.58;;
77099;SDS011;66602;48.922;2.414;2023-03-23T13:21:24;4.82;;;2.55;;
77099;SDS011;66602;48.922;2.414;2023-03-23T13:23:59;6.00;;;2.42;;
77099;SDS011;66602;48.922;2.414;2023-03-23T13:26:31;6.53;;;2.90;;
77099;SDS011;66602;48.922;2.414;2023-03-23T13:29:06;10.27;;;3.30;;
77099;SDS011;66602;48.922;2.414;2023-03-23T13:31:38;10.38;;;2.40;;
77099;SDS011;66602;48.922;2.414;2023-03-23T13:34:15;8.20;;;3.05;;
77099;SDS011;66602;48.922;2.414;2023-03-23T13:36:55;8.00;;;2.80;;
77099;SDS011;66602;48.922;2.414;2023-03-23T13:39:32;4.82;;;2.60;;
77099;SDS011;66602;48.922;2.414;2023-03-23T13:42:05;4.88;;;2.38;;
77099;SDS011;66602;48.922;2.414;2023-03-23T13:57:51;8.25;;;2.22;;
77099;SDS011;66602;48.922;2.414;2023-03-23T14:03:02;7.78;;;2.05;;
77099;SDS011;66602;48.922;2.414;2023-03-23T14:10:59;4.50;;;2.05;;
77099;SDS011;66602;48.922;2.414;2023-03-23T14:16:24;5.20;;;2.67;;
77099;SDS011;66602;48.922;2.414;2023-03-23T14:19:00;10.20;;;2.80;;
77099;SDS011;66602;48.922;2.414;2023-03-23T14:23:53;7.13;;;2.80;;
77099;SDS011;66602;48.922;2.414;2023-03-23T14:26:21;4.25;;;2.22;;
77099;SDS011;66602;48.922;2.414;2023-03-23T14:28:49;10.07;;;2.70;;
77099;SDS011;66602;48.922;2.414;2023-03-23T14:31:20;6.70;;;2.67;;
77099;SDS011;66602;48.922;2.414;2023-03-23T14:33:48;8.35;;;2.40;;
77099;SDS011;66602;48.922;2.414;2023-03-23T14:36:22;3.05;;;2.17;;
77099;SDS011;66602;48.922;2.414;2023-03-23T14:38:55;6.50;;;2.40;;
77099;SDS011;66602;48.922;2.414;2023-03-23T14:41:41;4.40;;;2.53;;
77099;SDS011;66602;48.922;2.414;2023-03-23T14:44:11;8.73;;;3.10;;
77099;SDS011;66602;48.922;2.414;2023-03-23T14:46:42;3.90;;;2.28;;
77099;SDS011;66602;48.922;2.414;2023-03-23T14:49:11;8.43;;;2.50;;
77099;SDS011;66602;48.922;2.414;2023-03-23T14:51:51;4.25;;;2.30;;
77099;SDS011;66602;48.922;2.414;2023-03-23T14:54:28;3.42;;;2.17;;
77099;SDS011;66602;48.922;2.414;2023-03-23T14:56:54;5.05;;;2.20;;
77099;SDS011;66602;48.922;2.414;2023-03-23T14:59:20;3.42;;;2.50;;
77099;SDS011;66602;48.922;2.414;2023-03-23T15:01:47;5.95;;;2.40;;
77099;SDS011;66602;48.922;2.414;2023-03-23T15:06:43;1.85;;;1.73;;
77099;SDS011;66602;48.922;2.414;2023-03-23T15:09:14;9.80;;;2.17;;
77099;SDS011;66602;48.922;2.414;2023-03-23T15:11:49;5.70;;;1.98;;
77099;SDS011;66602;48.922;2.414;2023-03-23T15:14:24;3.05;;;2.30;;
77099;SDS011;66602;48.922;2.414;2023-03-23T15:16:55;4.07;;;2.53;;
77099;SDS011;66602;48.922;2.414;2023-03-23T15:19:23;7.75;;;2.22;;
77099;SDS011;66602;48.922;2.414;2023-03-23T15:22:03;5.82;;;2.30;;
77099;SDS011;66602;48.922;2.414;2023-03-23T15:24:39;15.13;;;4.07;;
77099;SDS011;66602;48.922;2.414;2023-03-23T15:29:34;2.40;;;2.15;;
77099;SDS011;66602;48.922;2.414;2023-03-23T15:32:13;13.10;;;2.92;;
77099;SDS011;66602;48.922;2.414;2023-03-23T15:35:03;17.48;;;3.13;;
77099;SDS011;66602;48.922;2.414;2023-03-23T15:37:39;11.23;;;2.00;;
77099;SDS011;66602;48.922;2.414;2023-03-23T15:40:15;3.47;;;3.17;;
77099;SDS011;66602;48.922;2.414;2023-03-23T15:42:42;5.10;;;2.78;;
77099;SDS011;66602;48.922;2.414;2023-03-23T15:47:38;4.95;;;2.08;;
77099;SDS011;66602;48.922;2.414;2023-03-23T15:52:34;5.22;;;2.03;;
77099;SDS011;66602;48.922;2.414;2023-03-23T15:55:00;3.78;;;2.17;;
77099;SDS011;66602;48.922;2.414;2023-03-23T15:57:25;5.97;;;3.00;;
77099;SDS011;66602;48.922;2.414;2023-03-23T15:59:51;9.70;;;2.63;;
77099;SDS011;66602;48.922;2.414;2023-03-23T16:02:18;5.22;;;3.33;;
77099;SDS011;66602;48.922;2.414;2023-03-23T16:04:47;3.88;;;3.33;;
77099;SDS011;66602;48.922;2.414;2023-03-23T16:07:13;9.07;;;2.90;;
77099;SDS011;66602;48.922;2.414;2023-03-23T16:09:39;4.43;;;2.80;;
77099;SDS011;66602;48.922;2.414;2023-03-23T16:12:11;3.53;;;2.35;;
77099;SDS011;66602;48.922;2.414;2023-03-23T16:14:37;4.65;;;2.40;;
77099;SDS011;66602;48.922;2.414;2023-03-23T16:17:04;3.58;;;2.35;;
77099;SDS011;66602;48.922;2.414;2023-03-23T16:19:29;2.58;;;2.00;;
77099;SDS011;66602;48.922;2.414;2023-03-23T16:21:57;4.95;;;2.20;;
77099;SDS011;66602;48.922;2.414;2023-03-23T16:24:22;4.00;;;1.95;;
77099;SDS011;66602;48.922;2.414;2023-03-23T16:26:48;6.00;;;1.83;;
77099;SDS011;66602;48.922;2.414;2023-03-23T16:29:14;8.90;;;2.25;;
77099;SDS011;66602;48.922;2.414;2023-03-23T16:31:41;7.53;;;2.45;;
77099;SDS011;66602;48.922;2.414;2023-03-23T16:34:07;5.68;;;2.17;;
77099;SDS011;66602;48.922;2.414;2023-03-23T16:36:33;5.90;;;1.65;;
77099;SDS011;66602;48.922;2.414;2023-03-23T16:38:59;3.10;;;1.95;;
77099;SDS011;66602;48.922;2.414;2023-03-23T16:41:25;4.88;;;2.15;;
77099;SDS011;66602;48.922;2.414;2023-03-23T16:43:50;2.75;;;1.70;;
77099;SDS011;66602;48.922;2.414;2023-03-23T16:46:16;5.53;;;2.05;;
77099;SDS011;66602;48.922;2.414;2023-03-23T16:48:41;2.83;;;1.65;;
77099;SDS011;66602;48.922;2.414;2023-03-23T16:51:07;6.97;;;1.92;;
77099;SDS011;66602;48.922;2.414;2023-03-23T16:53:33;5.55;;;2.42;;
77099;SDS011;66602;48.922;2.414;2023-03-23T16:55:58;2.35;;;1.73;;
77099;SDS011;66602;48.922;2.414;2023-03-23T16:58:24;1.98;;;1.88;;
77099;SDS011;66602;48.922;2.414;2023-03-23T17:00:50;6.80;;;2.03;;
77099;SDS011;66602;48.922;2.414;2023-03-23T17:03:17;8.15;;;1.55;;
77099;SDS011;66602;48.922;2.414;2023-03-23T17:05:44;5.35;;;1.95;;
77099;SDS011;66602;48.922;2.414;2023-03-23T17:08:12;5.50;;;2.10;;
77099;SDS011;66602;48.922;2.414;2023-03-23T17:10:44;3.08;;;1.50;;
77099;SDS011;66602;48.922;2.414;2023-03-23T17:13:10;2.90;;;1.95;;
77099;SDS011;66602;48.922;2.414;2023-03-23T17:15:36;3.92;;;2.10;;
77099;SDS011;66602;48.922;2.414;2023-03-23T17:18:03;3.38;;;2.33;;
77099;SDS011;66602;48.922;2.414;2023-03-23T17:20:30;7.93;;;1.98;;
77099;SDS011;66602;48.922;2.414;2023-03-23T17:22:56;8.27;;;1.90;;
77099;SDS011;66602;48.922;2.414;2023-03-23T17:25:23;4.22;;;2.08;;